createdAt,value
2019-04-05T00:00:14.754Z,97488.68
2019-04-05T00:02:44.256Z,97489.81
2019-04-05T00:05:14.344Z,97494.67
2019-04-05T00:07:43.857Z,97490.55
2019-04-05T00:10:14.547Z,97493.86
2019-04-05T00:12:44.195Z,97489.38
2019-04-05T00:15:15.959Z,97488.56
2019-04-05T00:17:45.773Z,97494.54
2019-04-05T00:20:17.020Z,97493.63
2019-04-05T00:22:46.506Z,97490.50
2019-04-05T00:25:16.127Z,97501.02
2019-04-05T00:27:45.624Z,97504.47
2019-04-05T00:30:15.592Z,97501.76
2019-04-05T00:32:45.048Z,97507.45
2019-04-05T00:35:14.721Z,97509.21
2019-04-05T00:37:44.197Z,97508.42
2019-04-05T00:40:14.253Z,97507.52
2019-04-05T00:42:43.773Z,97512.91
2019-04-05T00:45:32.577Z,97510.59
2019-04-05T00:48:02.244Z,97506.06
2019-04-05T00:50:31.766Z,97511.80
2019-04-05T00:53:01.271Z,97507.39
2019-04-05T00:55:30.774Z,97510.44
2019-04-05T00:58:00.511Z,97504.62
2019-04-05T01:00:49.327Z,97494.16
2019-04-05T01:03:18.811Z,97499.97
2019-04-05T01:05:48.679Z,97491.88
2019-04-05T01:08:18.333Z,97499.13
2019-04-05T01:10:47.977Z,97493.50
2019-04-05T01:13:17.831Z,97494.03
2019-04-05T01:15:47.330Z,97488.52
2019-04-05T01:18:17.096Z,97489.75
2019-04-05T01:20:50.029Z,97488.28
2019-04-05T01:23:21.052Z,97493.31
2019-04-05T01:26:10.299Z,97490.58
2019-04-05T01:28:42.903Z,97489.86
2019-04-05T01:31:31.665Z,97490.47
2019-04-05T01:34:01.217Z,97487.36
2019-04-05T01:36:30.704Z,97486.40
2019-04-05T01:39:00.145Z,97487.13
2019-04-05T01:41:30.256Z,97483.36
2019-04-05T01:43:59.867Z,97482.08
2019-04-05T01:46:29.419Z,97474.05
2019-04-05T01:48:59.338Z,97470.30
2019-04-05T01:51:28.824Z,97468.00
2019-04-05T01:54:17.615Z,97399.20
2019-04-05T01:56:47.098Z,97468.91
2019-04-05T01:59:16.660Z,97467.38
2019-04-05T02:01:46.329Z,97472.28
2019-04-05T02:04:15.811Z,97461.63
2019-04-05T02:06:45.601Z,97463.80
2019-04-05T02:09:16.830Z,97467.77
2019-04-05T02:11:47.907Z,97474.16
2019-04-05T02:14:19.232Z,97470.78
2019-04-05T02:16:49.026Z,97469.33
2019-04-05T02:19:20.278Z,97474.00
2019-04-05T02:21:49.790Z,97473.53
2019-04-05T02:24:19.262Z,97472.41
2019-04-05T02:26:49.059Z,97476.57
2019-04-05T02:29:18.541Z,97487.69
2019-04-05T02:31:49.885Z,97484.09
2019-04-05T02:34:38.662Z,97492.34
2019-04-05T02:37:09.935Z,97494.41
2019-04-05T02:39:39.582Z,97499.28
2019-04-05T02:42:12.543Z,97498.76
2019-04-05T02:44:46.289Z,97503.73
2019-04-05T02:47:16.487Z,97498.98
2019-04-05T02:49:47.977Z,97500.15
2019-04-05T02:52:21.491Z,97502.16
2019-04-05T02:54:53.274Z,97507.32
2019-04-05T02:57:23.570Z,97505.88
2019-04-05T02:59:54.411Z,97507.08
2019-04-05T03:02:24.698Z,97510.90
2019-04-05T03:04:54.998Z,97515.23
2019-04-05T03:07:27.036Z,97507.06
2019-04-05T03:09:59.131Z,97505.43
2019-04-05T03:12:29.799Z,97505.25
2019-04-05T03:15:03.417Z,97504.05
2019-04-05T03:17:36.481Z,97507.27
2019-04-05T03:20:08.379Z,97503.22
2019-04-05T03:22:38.657Z,97501.27
2019-04-05T03:25:08.859Z,97504.75
2019-04-05T03:27:39.954Z,97504.34
2019-04-05T03:30:09.944Z,97503.23
2019-04-05T03:32:49.197Z,97501.41
2019-04-05T03:35:19.212Z,97501.06
2019-04-05T03:37:48.863Z,97504.06
2019-04-05T03:40:18.591Z,97500.17
2019-04-05T03:42:48.502Z,97502.27
2019-04-05T03:45:18.576Z,97499.80
2019-04-05T03:47:48.617Z,97501.52
2019-04-05T03:50:19.526Z,97502.54
2019-04-05T03:52:49.171Z,97507.90
2019-04-05T03:55:19.126Z,97514.23
2019-04-05T03:57:49.141Z,97514.23
2019-04-05T04:00:18.991Z,97430.13
2019-04-05T04:02:48.947Z,97508.91
2019-04-05T04:05:18.865Z,97504.39
2019-04-05T04:07:48.509Z,97510.38
2019-04-05T04:10:19.844Z,97513.42
2019-04-05T04:12:50.293Z,97514.92
2019-04-05T04:15:21.606Z,97505.76
2019-04-05T04:17:51.720Z,97515.01
2019-04-05T04:20:26.651Z,97513.13
2019-04-05T04:22:56.274Z,97515.83
2019-04-05T04:25:25.995Z,97512.27
2019-04-05T04:27:55.762Z,97518.85
2019-04-05T04:30:27.582Z,97514.48
2019-04-05T04:32:57.676Z,97517.05
2019-04-05T04:35:30.835Z,97520.48
2019-04-05T04:38:01.180Z,97516.45
2019-04-05T04:40:32.326Z,97516.63
2019-04-05T04:43:03.245Z,97513.45
2019-04-05T04:45:34.241Z,97514.31
2019-04-05T04:48:04.509Z,97510.38
2019-04-05T04:50:35.412Z,97502.48
2019-04-05T04:53:05.468Z,97502.83
2019-04-05T04:55:36.269Z,97502.89
2019-04-05T04:58:06.609Z,97502.17
2019-04-05T05:00:36.927Z,97497.45
2019-04-05T05:03:06.763Z,97507.27
2019-04-05T05:05:36.733Z,97502.21
2019-04-05T05:08:06.924Z,97503.84
2019-04-05T05:10:36.918Z,97502.64
2019-04-05T05:13:06.836Z,97508.22
2019-04-05T05:15:36.931Z,97513.45
2019-04-05T05:18:06.726Z,97526.36
2019-04-05T05:20:36.947Z,97526.89
2019-04-05T05:23:06.716Z,97524.64
2019-04-05T05:25:36.402Z,97520.52
2019-04-05T05:28:06.608Z,97524.94
2019-04-05T05:30:36.505Z,97519.85
2019-04-05T05:33:06.421Z,97519.95
2019-04-05T05:35:36.306Z,97521.30
2019-04-05T05:38:25.129Z,97527.08
2019-04-05T05:40:54.923Z,97526.10
2019-04-05T05:43:24.547Z,97528.52
2019-04-05T05:45:54.052Z,97534.53
2019-04-05T05:48:23.921Z,97532.31
2019-04-05T05:50:54.925Z,97529.33
2019-04-05T05:53:24.742Z,97528.45
2019-04-05T05:55:54.224Z,97530.76
2019-04-05T05:58:25.878Z,97527.75
2019-04-05T06:00:54.893Z,97530.69
2019-04-05T06:03:43.714Z,97530.21
2019-04-05T06:06:13.195Z,97525.86
2019-04-05T06:08:42.668Z,97524.80
2019-04-05T06:11:12.181Z,97529.37
2019-04-05T06:13:41.687Z,97530.41
2019-04-05T06:16:11.245Z,97519.61
2019-04-05T06:18:40.743Z,97530.72
2019-04-05T06:21:10.471Z,97530.45
2019-04-05T06:23:39.932Z,97527.65
2019-04-05T06:26:09.484Z,97530.56
2019-04-05T06:28:39.282Z,97525.13
2019-04-05T06:31:10.365Z,97529.16
2019-04-05T06:33:40.229Z,97532.73
2019-04-05T06:36:09.717Z,97534.70
2019-04-05T06:38:39.215Z,97534.83
2019-04-05T06:41:09.093Z,97530.47
2019-04-05T06:43:38.577Z,97527.11
2019-04-05T06:46:08.082Z,97526.58
2019-04-05T06:48:37.727Z,97524.95
2019-04-05T06:51:07.352Z,97524.24
2019-04-05T06:53:36.803Z,97522.73
2019-04-05T06:56:06.446Z,97520.89
2019-04-05T06:58:35.915Z,97515.03
2019-04-05T07:01:05.529Z,97520.83
2019-04-05T07:03:35.067Z,97527.81
2019-04-05T07:06:04.588Z,97525.97
2019-04-05T07:08:34.055Z,97527.95
2019-04-05T07:11:03.564Z,97526.71
2019-04-05T07:13:33.152Z,97520.00
2019-04-05T07:16:02.653Z,97515.05
2019-04-05T07:18:36.014Z,97514.58
2019-04-05T07:21:03.428Z,97517.34
2019-04-05T07:23:32.906Z,97515.89
2019-04-05T07:26:02.474Z,97521.96
2019-04-05T07:28:31.962Z,97510.27
2019-04-05T07:31:01.429Z,97509.88
2019-04-05T07:33:31.242Z,97516.57
2019-04-05T07:36:04.355Z,97517.45
2019-04-05T07:38:33.862Z,97519.78
2019-04-05T07:41:03.394Z,97526.09
2019-04-05T07:43:32.893Z,97523.91
2019-04-05T07:46:02.784Z,97517.75
2019-04-05T07:48:43.788Z,97522.54
2019-04-05T07:51:03.551Z,97514.49
2019-04-05T07:53:33.036Z,97512.53
2019-04-05T07:56:03.237Z,97506.89
2019-04-05T07:58:32.716Z,97506.08
2019-04-05T08:01:05.502Z,97509.83
2019-04-05T08:03:35.029Z,97503.31
2019-04-05T08:06:04.941Z,97502.45
2019-04-05T08:08:38.988Z,97508.94
2019-04-05T08:11:08.807Z,97506.91
2019-04-05T08:13:41.796Z,97505.41
2019-04-05T08:16:11.356Z,97507.94
2019-04-05T08:18:41.087Z,97504.75
2019-04-05T08:21:10.715Z,97506.55
2019-04-05T08:23:40.261Z,97510.47
2019-04-05T08:26:09.811Z,97508.69
2019-04-05T08:28:39.291Z,97511.97
2019-04-05T08:31:10.860Z,97503.59
2019-04-05T08:33:40.050Z,97506.84
2019-04-05T08:36:11.126Z,97504.77
2019-04-05T08:38:44.738Z,97511.20
2019-04-05T08:41:14.300Z,97496.95
2019-04-05T08:43:43.819Z,97498.58
2019-04-05T08:46:13.409Z,97495.75
2019-04-05T08:48:42.917Z,97486.95
2019-04-05T08:51:12.422Z,97485.23
2019-04-05T08:53:41.925Z,97486.66
2019-04-05T08:56:11.451Z,97484.83
2019-04-05T08:58:40.957Z,97480.83
2019-04-05T09:01:10.479Z,97477.73
2019-04-05T09:03:59.314Z,97469.03
2019-04-05T09:06:28.830Z,97458.77
2019-04-05T09:08:58.295Z,97447.28
2019-04-05T09:11:27.787Z,97441.25
2019-04-05T09:13:57.296Z,97439.63
2019-04-05T09:16:26.863Z,97431.41
2019-04-05T09:18:56.365Z,97439.63
2019-04-05T09:21:25.836Z,97439.78
2019-04-05T09:23:55.338Z,97433.23
2019-04-05T09:26:25.167Z,97440.47
2019-04-05T09:28:55.331Z,97434.97
2019-04-05T09:31:24.859Z,97454.20
2019-04-05T09:33:54.409Z,97452.78
2019-04-05T09:36:23.886Z,97455.33
2019-04-05T09:38:53.390Z,97453.70
2019-04-05T09:41:22.900Z,97458.95
2019-04-05T09:43:52.392Z,97463.87
2019-04-05T09:46:21.867Z,97464.00
2019-04-05T09:48:51.372Z,97474.47
2019-04-05T09:51:20.832Z,97472.61
2019-04-05T09:53:50.402Z,97463.69
2019-04-05T09:56:19.924Z,97469.66
2019-04-05T09:58:49.423Z,97463.08
2019-04-05T10:01:18.959Z,97459.64
2019-04-05T10:03:48.464Z,97464.63
2019-04-05T10:06:17.950Z,97465.00
2019-04-05T10:08:47.449Z,97468.37
2019-04-05T10:11:16.917Z,97464.52
2019-04-05T10:13:46.391Z,97460.94
2019-04-05T10:16:15.896Z,97464.14
2019-04-05T10:18:45.579Z,97457.16
2019-04-05T10:21:14.949Z,97463.05
2019-04-05T10:23:44.409Z,97460.09
2019-04-05T10:26:13.903Z,97457.17
2019-04-05T10:28:43.388Z,97448.64
2019-04-05T10:31:12.927Z,97450.37
2019-04-05T10:33:42.451Z,97447.02
2019-04-05T10:36:11.944Z,97443.90
2019-04-05T10:39:00.746Z,97371.73
2019-04-05T10:41:30.220Z,97439.70
2019-04-05T10:43:59.723Z,97443.27
2019-04-05T10:46:29.333Z,97436.22
2019-04-05T10:48:58.858Z,97433.95
2019-04-05T10:51:29.817Z,97435.59
2019-04-05T10:54:18.726Z,97433.33
2019-04-05T10:56:48.213Z,97435.20
2019-04-05T10:59:17.691Z,97433.23
2019-04-05T11:01:47.198Z,97427.56
2019-04-05T11:04:16.848Z,97421.33
2019-04-05T11:06:47.573Z,97419.09
2019-04-05T11:09:17.066Z,97419.26
2019-04-05T11:11:46.550Z,97416.77
2019-04-05T11:14:16.037Z,97414.87
2019-04-05T11:16:57.894Z,97411.63
2019-04-05T11:19:16.723Z,97412.58
2019-04-05T11:21:47.904Z,97414.36
2019-04-05T11:24:17.432Z,97418.73
2019-04-05T11:26:46.886Z,97419.51
2019-04-05T11:29:16.352Z,97416.73
2019-04-05T11:31:56.382Z,97414.77
2019-04-05T11:34:17.934Z,97415.91
2019-04-05T11:36:47.873Z,97417.02
2019-04-05T11:39:17.660Z,97418.23
2019-04-05T11:41:50.124Z,97417.02
2019-04-05T11:44:19.894Z,97411.56
2019-04-05T11:47:08.727Z,97413.59
2019-04-05T11:49:39.827Z,97412.28
2019-04-05T11:52:10.819Z,97407.06
2019-04-05T11:54:40.384Z,97410.94
2019-04-05T11:57:09.935Z,97411.11
2019-04-05T11:59:39.690Z,97407.82
2019-04-05T12:02:10.805Z,97400.95
2019-04-05T12:04:42.694Z,97397.14
2019-04-05T12:07:11.492Z,97396.73
2019-04-05T12:09:41.030Z,97397.38
2019-04-05T12:12:10.488Z,97389.90
2019-04-05T12:14:39.956Z,97389.14
2019-04-05T12:17:09.804Z,97392.55
2019-04-05T12:19:39.402Z,97389.56
2019-04-05T12:22:09.353Z,97387.03
2019-04-05T12:24:38.964Z,97387.34
2019-04-05T12:27:08.522Z,97379.67
2019-04-05T12:29:37.987Z,97383.44
2019-04-05T12:32:07.555Z,97380.81
2019-04-05T12:34:37.009Z,97390.69
2019-04-05T12:37:06.568Z,97383.97
2019-04-05T12:39:37.184Z,97389.17
2019-04-05T12:42:06.915Z,97388.68
2019-04-05T12:44:36.384Z,97391.97
2019-04-05T12:47:06.373Z,97397.02
2019-04-05T12:49:35.858Z,97395.27
2019-04-05T12:52:05.554Z,97395.89
2019-04-05T12:54:35.056Z,97396.16
2019-04-05T12:57:04.606Z,97391.66
2019-04-05T12:59:34.103Z,97393.11
2019-04-05T13:02:03.575Z,97388.11
2019-04-05T13:04:33.090Z,97381.16
2019-04-05T13:07:02.571Z,97381.23
2019-04-05T13:09:32.463Z,97387.39
2019-04-05T13:12:02.260Z,97392.35
2019-04-05T13:14:31.717Z,97380.30
2019-04-05T13:17:02.628Z,97379.06
2019-04-05T13:19:32.292Z,97378.52
2019-04-05T13:22:22.819Z,97375.68
2019-04-05T13:24:52.326Z,97384.27
2019-04-05T13:27:21.797Z,97386.30
2019-04-05T13:29:51.322Z,97387.70
2019-04-05T13:32:22.347Z,97380.80
2019-04-05T13:34:53.554Z,97372.01
2019-04-05T13:37:23.336Z,97380.37
2019-04-05T13:39:52.827Z,97371.98
2019-04-05T13:42:22.311Z,97371.56
2019-04-05T13:44:51.832Z,97369.64
2019-04-05T13:47:21.321Z,97365.77
2019-04-05T13:49:50.966Z,97367.66
2019-04-05T13:52:20.568Z,97370.26
2019-04-05T13:54:50.049Z,97368.75
2019-04-05T13:57:19.545Z,97367.52
2019-04-05T13:59:49.444Z,97361.04
2019-04-05T14:02:21.184Z,97362.58
2019-04-05T14:04:53.601Z,97356.94
2019-04-05T14:07:23.636Z,97356.59
2019-04-05T14:09:52.717Z,97353.91
2019-04-05T14:12:22.175Z,97349.83
2019-04-05T14:14:51.902Z,97353.69
2019-04-05T14:17:21.489Z,97357.94
2019-04-05T14:19:50.935Z,97361.22
2019-04-05T14:22:22.414Z,97362.02
2019-04-05T14:24:52.936Z,97361.77
2019-04-05T14:27:23.168Z,97363.75
2019-04-05T14:29:52.912Z,97361.23
2019-04-05T14:32:41.715Z,97358.11
2019-04-05T14:35:11.819Z,97363.06
2019-04-05T14:37:41.339Z,97357.91
2019-04-05T14:40:14.020Z,97363.30
2019-04-05T14:42:45.015Z,97368.55
2019-04-05T14:45:14.872Z,97365.45
2019-04-05T14:48:03.703Z,97370.28
2019-04-05T14:50:34.670Z,97375.05
2019-04-05T14:53:23.514Z,97367.34
2019-04-05T14:55:52.995Z,97369.16
2019-04-05T14:58:22.549Z,97363.32
2019-04-05T15:00:52.081Z,97363.36
2019-04-05T15:03:21.573Z,97364.44
2019-04-05T15:05:51.115Z,97365.23
2019-04-05T15:08:21.219Z,97365.81
2019-04-05T15:10:51.483Z,97360.25
2019-04-05T15:13:21.107Z,97359.80
2019-04-05T15:16:11.656Z,97305.56
2019-04-05T15:19:03.013Z,97366.81
2019-04-05T15:21:34.677Z,97363.13
2019-04-05T15:24:23.007Z,97363.69
2019-04-05T15:26:52.735Z,97364.45
2019-04-05T15:29:25.841Z,97360.33
2019-04-05T15:31:55.500Z,97361.75
2019-04-05T15:34:28.004Z,97365.17
2019-04-05T15:36:55.832Z,97366.53
2019-04-05T15:39:25.292Z,97365.42
2019-04-05T15:41:54.822Z,97366.36
2019-04-05T15:44:43.604Z,97367.28
2019-04-05T15:47:13.750Z,97365.83
2019-04-05T15:49:43.481Z,97369.27
2019-04-05T15:52:18.647Z,97366.65
2019-04-05T15:54:44.188Z,97369.80
2019-04-05T15:57:13.758Z,97371.14
2019-04-05T15:59:45.045Z,97368.80
2019-04-05T16:02:15.001Z,97371.87
2019-04-05T16:04:44.581Z,97370.92
2019-04-05T16:07:14.075Z,97370.32
2019-04-05T16:09:43.590Z,97368.66
2019-04-05T16:12:13.060Z,97370.80
2019-04-05T16:14:42.618Z,97372.45
2019-04-05T16:17:12.590Z,97375.97
2019-04-05T16:19:42.299Z,97375.98
2019-04-05T16:22:11.806Z,97379.73
2019-04-05T16:24:41.314Z,97379.77
2019-04-05T16:27:10.801Z,97376.11
2019-04-05T16:29:40.252Z,97383.72
2019-04-05T16:32:09.746Z,97387.96
2019-04-05T16:34:39.231Z,97385.87
2019-04-05T16:37:08.720Z,97387.63
2019-04-05T16:39:38.204Z,97389.76
2019-04-05T16:42:12.027Z,97394.56
2019-04-05T16:44:41.484Z,97391.31
2019-04-05T16:47:30.350Z,97390.51
2019-04-05T16:49:59.853Z,97393.98
2019-04-05T16:52:29.346Z,97393.80
2019-04-05T16:54:58.825Z,97388.00
2019-04-05T16:57:28.331Z,97389.06
2019-04-05T16:59:58.863Z,97387.85
2019-04-05T17:02:28.468Z,97386.48
2019-04-05T17:04:58.026Z,97388.38
2019-04-05T17:07:27.479Z,97394.14
2019-04-05T17:09:57.225Z,97393.53
2019-04-05T17:12:45.981Z,97399.58
2019-04-05T17:15:16.373Z,97399.28
2019-04-05T17:17:45.874Z,97394.50
2019-04-05T17:20:15.870Z,97393.45
2019-04-05T17:22:57.386Z,97392.09
2019-04-05T17:25:16.723Z,97391.16
2019-04-05T17:27:46.178Z,97391.98
2019-04-05T17:30:36.398Z,97390.46
2019-04-05T17:33:05.949Z,97392.23
2019-04-05T17:35:36.615Z,97393.89
2019-04-05T17:38:06.084Z,97389.77
2019-04-05T17:40:35.584Z,97387.28
2019-04-05T17:43:06.579Z,97386.53
2019-04-05T17:45:36.110Z,97394.63
2019-04-05T17:48:05.764Z,97388.30
2019-04-05T17:50:36.028Z,97388.77
2019-04-05T17:53:12.604Z,97390.02
2019-04-05T17:55:37.433Z,97391.58
2019-04-05T17:58:28.367Z,97392.86
2019-04-05T18:00:58.127Z,97401.73
2019-04-05T18:03:27.582Z,97400.14
2019-04-05T18:05:57.402Z,97396.39
2019-04-05T18:08:46.161Z,97400.41
2019-04-05T18:11:15.678Z,97405.36
2019-04-05T18:13:45.150Z,97407.13
2019-04-05T18:16:14.659Z,97404.48
2019-04-05T18:18:44.165Z,97403.09
2019-04-05T18:21:13.645Z,97409.98
2019-04-05T18:23:43.129Z,97407.11
2019-04-05T18:26:12.783Z,97400.89
2019-04-05T18:28:42.236Z,97406.41
2019-04-05T18:31:11.739Z,97406.84
2019-04-05T18:33:41.234Z,97403.69
2019-04-05T18:36:10.721Z,97411.53
2019-04-05T18:38:40.182Z,97412.94
2019-04-05T18:41:10.012Z,97414.98
2019-04-05T18:43:39.528Z,97421.13
2019-04-05T18:46:09.069Z,97427.03
2019-04-05T18:48:38.858Z,97418.45
2019-04-05T18:51:08.346Z,97420.25
2019-04-05T18:53:38.324Z,97416.98
2019-04-05T18:56:07.920Z,97416.47
2019-04-05T18:58:37.422Z,97426.81
2019-04-05T19:01:07.286Z,97425.06
2019-04-05T19:03:37.012Z,97427.25
2019-04-05T19:06:07.977Z,97424.66
2019-04-05T19:08:39.732Z,97426.00
2019-04-05T19:11:08.685Z,97422.25
2019-04-05T19:13:38.171Z,97427.78
2019-04-05T19:16:07.868Z,97427.26
2019-04-05T19:18:37.823Z,97429.62
2019-04-05T19:21:07.465Z,97430.23
2019-04-05T19:23:49.915Z,97433.13
2019-04-05T19:26:08.421Z,97430.93
2019-04-05T19:28:37.879Z,97428.84
2019-04-05T19:49:05.647Z,97426.88
2019-04-05T19:51:35.129Z,97425.83
2019-04-05T19:54:05.068Z,97426.53
2019-04-05T19:56:34.535Z,97420.20
2019-04-05T19:59:04.014Z,97421.55
2019-04-05T20:01:52.850Z,97419.48
2019-04-05T20:04:22.324Z,97415.94
2019-04-05T20:06:58.341Z,97415.17
2019-04-05T20:09:23.295Z,97418.41
2019-04-05T20:11:52.758Z,97414.80
2019-04-05T20:14:22.220Z,97420.41
2019-04-05T20:16:51.706Z,97418.44
2019-04-05T20:19:21.210Z,97414.75
2019-04-05T20:21:50.767Z,97415.31
2019-04-05T20:24:20.547Z,97417.94
2019-04-05T20:26:50.031Z,97414.74
2019-04-05T20:29:21.635Z,97421.47
2019-04-05T20:32:10.037Z,97424.39
2019-04-05T20:34:39.540Z,97432.44
2019-04-05T20:37:09.001Z,97424.89
2019-04-05T20:39:38.518Z,97431.24
2019-04-05T20:42:08.180Z,97427.77
2019-04-05T20:44:37.626Z,97424.52
2019-04-05T20:47:07.105Z,97424.61
2019-04-05T20:49:36.614Z,97426.28
2019-04-05T20:52:06.241Z,97426.78
2019-04-05T20:54:35.719Z,97427.19
2019-04-05T20:57:05.211Z,97428.80
2019-04-05T20:59:34.690Z,97430.86
2019-04-05T21:02:04.835Z,97428.20
2019-04-05T21:04:34.315Z,97423.24
2019-04-05T21:07:03.805Z,97430.48
2019-04-05T21:09:33.593Z,97430.54
2019-04-05T21:12:03.072Z,97436.20
2019-04-05T21:14:32.565Z,97434.78
2019-04-05T21:17:03.640Z,97433.02
2019-04-05T21:19:33.190Z,97433.37
2019-04-05T21:22:02.650Z,97428.81
2019-04-05T21:24:36.276Z,97430.55
2019-04-05T21:27:03.845Z,97431.33
2019-04-05T21:29:52.694Z,97433.31
2019-04-05T21:32:22.172Z,97428.08
2019-04-05T21:34:51.661Z,97429.44
2019-04-05T21:37:40.445Z,97435.08
2019-04-05T21:40:10.723Z,97429.95
2019-04-05T21:42:40.197Z,97430.20
2019-04-05T21:45:10.011Z,97428.15
2019-04-05T21:47:39.478Z,97427.78
2019-04-05T21:50:10.920Z,97424.13
2019-04-05T21:52:40.431Z,97420.44
2019-04-05T21:55:10.122Z,97418.05
2019-04-05T21:57:58.971Z,97419.06
2019-04-05T22:00:34.585Z,97419.55
2019-04-05T22:03:04.143Z,97417.97
2019-04-05T22:05:35.387Z,97417.06
2019-04-05T22:08:04.907Z,97419.30
2019-04-05T22:10:34.441Z,97421.13
2019-04-05T22:13:04.556Z,97420.53
2019-04-05T22:15:34.186Z,97415.55
2019-04-05T22:18:04.108Z,97417.89
2019-04-05T22:20:33.583Z,97420.12
2019-04-05T22:23:03.040Z,97420.20
2019-04-05T22:25:32.553Z,97420.73
2019-04-05T22:28:02.030Z,97418.72
2019-04-05T22:30:31.523Z,97419.57
2019-04-05T22:33:01.053Z,97419.31
2019-04-05T22:35:30.509Z,97417.69
2019-04-05T22:38:00.010Z,97417.95
2019-04-05T22:40:29.496Z,97421.84
2019-04-05T22:42:58.954Z,97429.09
2019-04-05T22:45:47.787Z,97423.74
2019-04-05T22:48:17.268Z,97424.92
2019-04-05T22:50:46.723Z,97425.45
2019-04-05T22:53:16.243Z,97413.62
2019-04-05T22:55:45.700Z,97422.56
2019-04-05T22:58:15.161Z,97418.57
2019-04-05T23:00:45.081Z,97421.84
2019-04-05T23:03:15.674Z,97425.26
2019-04-05T23:05:45.080Z,97428.91
2019-04-05T23:08:14.606Z,97428.61
2019-04-05T23:10:44.054Z,97431.09
2019-04-05T23:13:13.538Z,97429.84
2019-04-05T23:15:43.021Z,97431.98
2019-04-05T23:18:12.494Z,97432.04
2019-04-05T23:21:01.343Z,97422.77
2019-04-05T23:23:30.836Z,97421.36
2019-04-05T23:26:00.352Z,97417.77
2019-04-05T23:28:29.789Z,97428.53
2019-04-05T23:30:59.299Z,97420.48
2019-04-05T23:33:28.745Z,97426.58
2019-04-05T23:35:58.267Z,97420.66
2019-04-05T23:38:27.765Z,97417.45
2019-04-05T23:40:59.573Z,97420.80
2019-04-05T23:43:28.463Z,97416.94
2019-04-05T23:45:58.018Z,97419.19
2019-04-05T23:48:27.502Z,97421.98
2019-04-05T23:50:57.007Z,97421.65
2019-04-05T23:53:26.500Z,97421.20
2019-04-05T23:55:55.966Z,97417.75
2019-04-05T23:58:25.919Z,97417.14
